createdAt,value
2022-11-07T00:00:15.681Z,8.00
2022-11-07T00:05:18.443Z,8.65
2022-11-07T00:10:21.233Z,8.02
2022-11-07T00:15:23.607Z,9.10
2022-11-07T00:20:26.456Z,10.68
2022-11-07T00:25:28.838Z,8.40
2022-11-07T00:30:31.249Z,8.75
2022-11-07T00:35:33.851Z,10.10
2022-11-07T00:40:36.302Z,9.73
2022-11-07T00:45:38.669Z,9.05
2022-11-07T00:50:41.144Z,9.77
2022-11-07T00:55:43.589Z,8.80
2022-11-07T01:00:46.004Z,7.43
2022-11-07T01:05:59.242Z,8.50
2022-11-07T01:11:06.709Z,9.13
2022-11-07T01:16:12.759Z,9.67
2022-11-07T01:21:16.767Z,6.45
2022-11-07T01:26:19.526Z,8.35
2022-11-07T01:31:22.305Z,7.77
2022-11-07T01:36:25.032Z,8.23
2022-11-07T01:41:30.479Z,8.40
2022-11-07T01:46:37.126Z,7.00
2022-11-07T01:52:04.606Z,7.63
2022-11-07T01:57:15.542Z,8.27
2022-11-07T02:02:18.227Z,7.70
2022-11-07T02:07:22.642Z,9.50
2022-11-07T02:12:26.204Z,8.73
2022-11-07T02:17:28.719Z,8.10
2022-11-07T02:22:37.592Z,8.30
2022-11-07T02:27:41.458Z,8.40
2022-11-07T02:32:44.143Z,7.67
2022-11-07T02:37:46.533Z,7.93
2022-11-07T02:42:49.108Z,10.20
2022-11-07T02:47:51.595Z,8.37
2022-11-07T02:52:54.034Z,9.23
2022-11-07T02:57:56.756Z,11.37
2022-11-07T03:02:59.249Z,9.75
2022-11-07T03:08:01.804Z,8.48
2022-11-07T03:13:04.345Z,9.30
2022-11-07T03:18:06.735Z,7.78
2022-11-07T03:23:09.408Z,8.40
2022-11-07T03:28:11.802Z,5.85
2022-11-07T03:33:14.434Z,9.52
2022-11-07T03:38:16.973Z,7.43
2022-11-07T03:43:19.362Z,8.20
2022-11-07T03:48:21.802Z,9.47
2022-11-07T03:53:26.163Z,10.27
2022-11-07T03:58:28.915Z,11.27
2022-11-07T04:03:31.492Z,10.13
2022-11-07T04:08:34.266Z,11.02
2022-11-07T04:13:55.342Z,9.67
2022-11-07T04:18:58.251Z,8.73
2022-11-07T04:24:00.650Z,7.88
2022-11-07T04:29:03.062Z,9.57
2022-11-07T04:34:05.446Z,7.93
2022-11-07T04:39:09.287Z,8.50
2022-11-07T04:44:13.545Z,8.43
2022-11-07T04:49:16.029Z,9.95
2022-11-07T04:54:18.452Z,9.20
2022-11-07T04:59:20.839Z,9.52
2022-11-07T05:04:23.343Z,9.87
2022-11-07T05:09:27.474Z,10.75
2022-11-07T05:14:31.441Z,7.78
2022-11-07T05:19:33.800Z,9.87
2022-11-07T05:24:36.284Z,8.98
2022-11-07T05:29:38.818Z,9.10
2022-11-07T05:34:41.344Z,9.18
2022-11-07T05:39:43.760Z,11.40
2022-11-07T05:44:46.163Z,9.53
2022-11-07T05:49:48.540Z,11.40
2022-11-07T05:54:50.958Z,10.37
2022-11-07T05:59:53.353Z,10.77
2022-11-07T06:04:57.417Z,9.65
2022-11-07T06:09:59.920Z,9.67
2022-11-07T06:15:02.503Z,10.45
2022-11-07T06:20:05.227Z,10.13
2022-11-07T06:25:08.052Z,9.88
2022-11-07T06:30:11.030Z,9.95
2022-11-07T06:35:13.795Z,12.03
2022-11-07T06:40:16.180Z,10.55
2022-11-07T06:45:20.792Z,10.33
2022-11-07T06:50:23.188Z,10.68
2022-11-07T06:55:25.569Z,10.32
2022-11-07T07:00:33.952Z,11.30
2022-11-07T07:05:38.977Z,10.00
2022-11-07T07:10:45.576Z,10.87
2022-11-07T07:15:55.492Z,11.75
2022-11-07T07:21:11.095Z,11.65
2022-11-07T07:26:15.540Z,10.73
2022-11-07T07:31:17.915Z,11.48
2022-11-07T07:36:21.380Z,11.53
2022-11-07T07:41:23.806Z,12.85
2022-11-07T07:46:26.660Z,13.18
2022-11-07T07:51:29.145Z,13.13
2022-11-07T07:56:31.693Z,12.65
2022-11-07T08:01:34.330Z,13.43
2022-11-07T08:06:37.927Z,13.90
2022-11-07T08:11:40.445Z,13.13
2022-11-07T08:16:44.000Z,13.33
2022-11-07T08:22:03.730Z,12.18
2022-11-07T08:27:07.087Z,11.10
2022-11-07T08:32:17.002Z,10.48
2022-11-07T08:37:21.793Z,10.73
2022-11-07T08:42:24.379Z,10.70
2022-11-07T08:47:29.082Z,11.20
2022-11-07T08:52:36.021Z,12.63
2022-11-07T08:57:38.845Z,10.68
2022-11-07T09:03:23.925Z,13.55
2022-11-07T09:08:03.868Z,14.20
2022-11-07T09:13:06.239Z,13.25
2022-11-07T09:18:08.673Z,12.70
2022-11-07T09:23:11.177Z,13.13
2022-11-07T09:28:14.549Z,14.45
2022-11-07T09:33:17.384Z,14.37
2022-11-07T09:38:20.031Z,16.83
2022-11-07T09:43:50.105Z,16.13
2022-11-07T09:49:02.763Z,14.48
2022-11-07T09:54:46.702Z,16.75
2022-11-07T09:59:56.041Z,16.60
2022-11-07T10:05:03.702Z,17.70
2022-11-07T10:10:45.252Z,17.47
2022-11-07T10:15:54.804Z,16.80
2022-11-07T10:21:35.691Z,14.68
2022-11-07T10:26:29.509Z,14.40
2022-11-07T10:31:36.523Z,14.75
2022-11-07T10:36:42.148Z,16.37
2022-11-07T10:42:28.747Z,15.68
2022-11-07T10:47:32.227Z,16.23
2022-11-07T10:53:04.864Z,13.50
2022-11-07T10:58:08.925Z,13.35
2022-11-07T11:03:28.979Z,15.17
2022-11-07T11:08:40.826Z,18.80
2022-11-07T11:13:43.663Z,20.63
2022-11-07T11:18:51.359Z,16.50
2022-11-07T11:23:57.440Z,20.05
2022-11-07T11:29:12.487Z,22.07
2022-11-07T11:34:55.398Z,16.17
2022-11-07T11:40:02.538Z,16.35
2022-11-07T11:45:15.793Z,16.43
2022-11-07T11:50:25.590Z,17.20
2022-11-07T11:55:36.471Z,18.03
2022-11-07T12:00:58.422Z,16.67
2022-11-07T12:06:18.762Z,13.52
2022-11-07T12:11:43.722Z,14.37
2022-11-07T12:17:30.671Z,13.82
2022-11-07T12:23:00.157Z,12.20
2022-11-07T12:28:23.803Z,14.60
2022-11-07T12:33:41.635Z,11.95
2022-11-07T12:38:51.886Z,13.20
2022-11-07T12:44:05.457Z,13.63
2022-11-07T12:49:37.097Z,13.27
2022-11-07T12:54:45.339Z,12.80
2022-11-07T13:00:05.519Z,12.80
2022-11-07T13:05:38.182Z,12.73
2022-11-07T13:10:53.322Z,12.52
2022-11-07T13:16:19.840Z,12.73
2022-11-07T13:21:23.791Z,13.32
2022-11-07T13:32:11.198Z,13.73
2022-11-07T13:37:20.239Z,14.57
2022-11-07T13:42:24.923Z,14.68
2022-11-07T13:47:33.402Z,17.33
2022-11-07T13:52:53.086Z,22.65
2022-11-07T13:58:10.328Z,17.03
2022-11-07T14:03:24.988Z,14.82
2022-11-07T14:08:32.609Z,14.30
2022-11-07T14:13:41.227Z,13.83
2022-11-07T14:19:07.706Z,11.95
2022-11-07T14:24:25.499Z,12.85
2022-11-07T14:29:28.015Z,13.97
2022-11-07T14:34:30.848Z,14.27
2022-11-07T14:39:33.963Z,14.47
2022-11-07T14:44:53.769Z,15.23
2022-11-07T14:49:58.243Z,15.32
2022-11-07T14:55:13.298Z,14.23
2022-11-07T15:00:18.326Z,13.93
2022-11-07T15:05:39.225Z,13.93
2022-11-07T15:10:42.045Z,16.70
2022-11-07T15:15:47.144Z,17.02
2022-11-07T15:21:00.362Z,17.83
2022-11-07T15:26:12.902Z,16.90
2022-11-07T15:31:20.504Z,18.43
2022-11-07T15:36:23.481Z,18.52
2022-11-07T15:41:25.886Z,27.77
2022-11-07T15:46:40.294Z,34.23
2022-11-07T15:51:42.709Z,22.08
2022-11-07T15:56:46.374Z,35.10
2022-11-07T16:01:49.284Z,26.15
2022-11-07T16:06:53.012Z,58.67
2022-11-07T16:11:55.437Z,18.83
2022-11-07T16:16:57.956Z,25.42
2022-11-07T16:22:00.964Z,31.07
2022-11-07T16:27:03.479Z,19.23
2022-11-07T16:32:06.027Z,18.20
2022-11-07T16:37:11.456Z,19.20
2022-11-07T16:42:19.858Z,22.45
2022-11-07T16:47:23.962Z,22.13
2022-11-07T16:52:28.982Z,19.92
2022-11-07T16:57:32.736Z,17.95
2022-11-07T17:02:35.215Z,16.30
2022-11-07T17:07:37.901Z,19.75
2022-11-07T17:12:40.251Z,24.20
2022-11-07T17:17:42.986Z,22.30
2022-11-07T17:22:45.412Z,20.70
2022-11-07T17:27:48.967Z,20.63
2022-11-07T17:32:51.370Z,19.58
2022-11-07T17:37:53.782Z,20.07
2022-11-07T17:42:57.286Z,21.95
2022-11-07T17:47:59.765Z,19.77
2022-11-07T17:53:02.286Z,24.20
2022-11-07T17:58:04.720Z,21.65
2022-11-07T18:03:07.289Z,18.83
2022-11-07T18:08:25.033Z,20.45
2022-11-07T18:13:32.601Z,21.98
2022-11-07T18:18:35.343Z,17.73
2022-11-07T18:23:38.010Z,18.60
2022-11-07T18:28:42.745Z,17.73
2022-11-07T18:33:48.470Z,19.90
2022-11-07T18:38:54.607Z,16.67
2022-11-07T18:44:01.710Z,14.83
2022-11-07T18:49:07.826Z,13.82
2022-11-07T18:54:13.919Z,15.77
2022-11-07T18:59:17.882Z,13.48
2022-11-07T19:04:26.081Z,13.73
2022-11-07T19:09:30.912Z,15.47
2022-11-07T19:14:36.361Z,15.38
2022-11-07T19:19:47.708Z,15.03
2022-11-07T19:24:54.774Z,16.13
2022-11-07T19:29:59.420Z,15.88
2022-11-07T19:35:04.959Z,14.63
2022-11-07T19:40:08.104Z,18.27
2022-11-07T19:45:10.630Z,15.00
2022-11-07T19:50:13.395Z,15.88
2022-11-07T19:55:16.072Z,16.27
2022-11-07T20:00:18.728Z,14.40
2022-11-07T20:05:31.220Z,13.68
2022-11-07T20:10:34.263Z,14.07
2022-11-07T20:15:39.975Z,12.95
2022-11-07T20:20:43.628Z,14.32
2022-11-07T20:25:46.083Z,14.47
2022-11-07T20:30:48.607Z,16.48
2022-11-07T20:36:01.959Z,14.77
2022-11-07T20:41:05.475Z,13.43
2022-11-07T20:51:33.586Z,13.17
2022-11-07T20:56:40.305Z,12.73
2022-11-07T21:01:44.798Z,15.07
2022-11-07T21:06:49.127Z,14.57
2022-11-07T21:11:51.583Z,14.07
2022-11-07T21:16:56.320Z,14.50
2022-11-07T21:21:59.836Z,14.68
2022-11-07T21:27:02.460Z,12.67
2022-11-07T21:32:07.386Z,14.18
2022-11-07T21:37:10.997Z,16.15
2022-11-07T21:42:13.574Z,16.17
2022-11-07T21:47:17.007Z,15.95
2022-11-07T21:52:20.147Z,14.53
2022-11-07T21:57:24.250Z,15.30
2022-11-07T22:02:27.826Z,13.93
2022-11-07T22:07:37.535Z,14.33
2022-11-07T22:12:41.271Z,15.75
2022-11-07T22:17:43.656Z,13.70
2022-11-07T22:22:47.290Z,12.40
2022-11-07T22:27:51.202Z,12.93
2022-11-07T22:38:20.632Z,13.82
2022-11-07T22:43:25.360Z,13.57
2022-11-07T22:48:27.950Z,12.60
2022-11-07T22:53:30.637Z,12.77
2022-11-07T22:58:33.114Z,13.20
2022-11-07T23:03:35.528Z,11.98
2022-11-07T23:08:39.024Z,12.43
2022-11-07T23:14:02.264Z,12.88
2022-11-07T23:19:07.594Z,13.43
2022-11-07T23:24:10.723Z,13.10
2022-11-07T23:29:22.859Z,12.38
2022-11-07T23:34:26.058Z,14.43
2022-11-07T23:39:29.225Z,13.60
2022-11-07T23:44:31.627Z,12.50
2022-11-07T23:49:52.766Z,12.13
2022-11-07T23:55:13.652Z,11.55
